createdAt,value
2023-05-10T00:00:10.117Z,16.66
2023-05-10T00:02:43.409Z,16.65
2023-05-10T00:05:10.173Z,16.61
2023-05-10T00:07:36.848Z,16.60
2023-05-10T00:10:03.338Z,16.56
2023-05-10T00:12:29.753Z,16.53
2023-05-10T00:14:56.189Z,16.52
2023-05-10T00:17:22.620Z,16.50
2023-05-10T00:19:49.243Z,16.49
2023-05-10T00:22:15.749Z,16.47
2023-05-10T00:24:42.187Z,16.43
2023-05-10T00:27:08.814Z,16.40
2023-05-10T00:29:35.383Z,16.41
2023-05-10T00:32:01.883Z,16.40
2023-05-10T00:34:28.394Z,16.35
2023-05-10T00:36:54.905Z,16.35
2023-05-10T00:39:21.477Z,16.33
2023-05-10T00:41:48.001Z,16.32
2023-05-10T00:44:15.564Z,16.29
2023-05-10T00:46:42.806Z,16.29
2023-05-10T00:49:09.313Z,16.26
2023-05-10T00:51:36.098Z,16.24
2023-05-10T00:54:03.594Z,16.22
2023-05-10T00:56:30.824Z,16.16
2023-05-10T00:58:57.938Z,16.19
2023-05-10T01:01:24.433Z,16.18
2023-05-10T01:03:52.133Z,16.15
2023-05-10T01:06:18.679Z,16.11
2023-05-10T01:08:45.550Z,16.08
2023-05-10T01:11:12.092Z,16.10
2023-05-10T01:13:41.869Z,16.08
2023-05-10T01:16:09.153Z,16.04
2023-05-10T01:18:45.472Z,15.99
2023-05-10T01:21:39.210Z,15.98
2023-05-10T01:24:22.957Z,15.95
2023-05-10T01:27:09.046Z,15.95
2023-05-10T01:30:15.874Z,15.91
2023-05-10T01:33:16.786Z,15.86
2023-05-10T01:35:52.732Z,15.84
2023-05-10T01:38:29.710Z,15.84
2023-05-10T01:41:09.011Z,15.82
2023-05-10T01:43:46.528Z,15.78
2023-05-10T01:46:21.513Z,15.80
2023-05-10T01:48:52.370Z,15.73
2023-05-10T01:51:23.909Z,15.76
2023-05-10T01:53:52.571Z,15.72
2023-05-10T01:56:24.967Z,15.72
2023-05-10T01:58:53.816Z,15.71
2023-05-10T02:01:22.379Z,15.69
2023-05-10T02:03:52.092Z,15.65
2023-05-10T02:06:20.978Z,15.65
2023-05-10T02:08:48.784Z,15.60
2023-05-10T02:11:15.287Z,15.58
2023-05-10T02:13:44.461Z,15.59
2023-05-10T02:16:13.501Z,15.55
2023-05-10T02:18:42.017Z,15.56
2023-05-10T02:21:09.311Z,15.52
2023-05-10T02:23:39.796Z,15.50
2023-05-10T02:26:07.343Z,15.49
2023-05-10T02:28:36.073Z,15.46
2023-05-10T02:31:03.430Z,15.47
2023-05-10T02:33:32.423Z,15.45
2023-05-10T02:35:59.950Z,15.41
2023-05-10T02:38:27.749Z,15.40
2023-05-10T02:40:55.457Z,15.41
2023-05-10T02:43:24.237Z,15.38
2023-05-10T02:45:50.899Z,15.31
2023-05-10T02:48:17.834Z,15.35
2023-05-10T02:50:46.278Z,15.35
2023-05-10T02:53:20.041Z,15.31
2023-05-10T02:56:02.757Z,15.29
2023-05-10T02:58:29.195Z,15.23
2023-05-10T03:00:55.778Z,15.22
2023-05-10T03:03:22.262Z,15.22
2023-05-10T03:05:50.924Z,15.18
2023-05-10T03:08:17.453Z,15.16
2023-05-10T03:11:02.790Z,15.17
2023-05-10T03:13:37.242Z,15.14
2023-05-10T03:16:11.003Z,15.06
2023-05-10T03:19:17.712Z,15.09
2023-05-10T03:21:50.811Z,15.06
2023-05-10T03:24:20.858Z,15.05
2023-05-10T03:26:50.735Z,15.03
2023-05-10T03:29:19.297Z,15.00
2023-05-10T03:31:46.461Z,15.00
2023-05-10T03:34:14.190Z,15.00
2023-05-10T03:36:41.345Z,14.94
2023-05-10T03:39:07.789Z,14.90
2023-05-10T03:41:34.268Z,14.95
2023-05-10T03:44:00.800Z,14.90
2023-05-10T03:46:28.894Z,14.90
2023-05-10T03:48:55.491Z,14.86
2023-05-10T03:51:22.194Z,14.90
2023-05-10T03:53:48.712Z,14.87
2023-05-10T03:56:15.230Z,14.87
2023-05-10T03:58:41.668Z,14.86
2023-05-10T04:01:08.095Z,14.86
2023-05-10T04:03:36.496Z,14.83
2023-05-10T04:06:03.610Z,14.84
2023-05-10T04:08:30.151Z,14.82
2023-05-10T04:11:08.478Z,14.79
2023-05-10T04:13:35.058Z,14.81
2023-05-10T04:16:01.828Z,14.76
2023-05-10T04:18:28.414Z,14.80
2023-05-10T04:20:54.888Z,14.79
2023-05-10T04:23:21.366Z,14.76
2023-05-10T04:25:47.927Z,14.77
2023-05-10T04:28:14.312Z,14.74
2023-05-10T04:30:41.456Z,14.75
2023-05-10T04:33:08.061Z,14.73
2023-05-10T04:35:35.505Z,14.72
2023-05-10T04:38:02.001Z,14.72
2023-05-10T04:40:28.462Z,14.70
2023-05-10T04:42:55.373Z,14.68
2023-05-10T04:45:21.837Z,14.71
2023-05-10T04:47:48.314Z,14.64
2023-05-10T04:50:15.053Z,14.70
2023-05-10T04:52:41.693Z,14.69
2023-05-10T04:55:10.484Z,14.69
2023-05-10T04:57:36.904Z,14.69
2023-05-10T05:00:03.900Z,14.69
2023-05-10T05:02:30.588Z,14.69
2023-05-10T05:04:58.785Z,14.70
2023-05-10T05:07:25.229Z,14.69
2023-05-10T05:09:51.684Z,14.68
2023-05-10T05:12:18.174Z,14.67
2023-05-10T05:14:44.646Z,14.71
2023-05-10T05:17:11.144Z,14.72
2023-05-10T05:19:37.840Z,14.71
2023-05-10T05:22:04.302Z,14.76
2023-05-10T05:24:35.992Z,14.73
2023-05-10T05:27:02.394Z,14.78
2023-05-10T05:29:28.828Z,14.80
2023-05-10T05:31:55.695Z,14.82
2023-05-10T05:34:23.040Z,14.87
2023-05-10T05:36:49.530Z,14.89
2023-05-10T05:39:16.059Z,14.90
2023-05-10T05:41:43.326Z,14.93
2023-05-10T05:44:09.916Z,14.92
2023-05-10T05:46:36.322Z,14.96
2023-05-10T05:49:02.863Z,14.98
2023-05-10T05:51:29.323Z,15.00
2023-05-10T05:53:56.219Z,15.03
2023-05-10T05:56:25.340Z,15.05
2023-05-10T05:58:52.272Z,15.08
2023-05-10T06:01:18.736Z,15.10
2023-05-10T06:03:45.439Z,15.13
2023-05-10T06:06:12.002Z,15.16
2023-05-10T06:08:38.762Z,15.21
2023-05-10T06:11:05.420Z,15.23
2023-05-10T06:13:33.068Z,15.27
2023-05-10T06:15:59.900Z,15.29
2023-05-10T06:18:26.569Z,15.35
2023-05-10T06:20:53.253Z,15.38
2023-05-10T06:23:19.667Z,15.41
2023-05-10T06:25:46.170Z,15.43
2023-05-10T06:28:12.652Z,15.46
2023-05-10T06:30:39.350Z,15.49
2023-05-10T06:33:05.855Z,15.49
2023-05-10T06:35:34.287Z,15.53
2023-05-10T06:38:00.979Z,15.56
2023-05-10T06:40:27.646Z,15.58
2023-05-10T06:42:54.071Z,15.60
2023-05-10T06:45:20.897Z,15.63
2023-05-10T06:47:47.639Z,15.67
2023-05-10T06:50:14.096Z,15.71
2023-05-10T06:52:40.622Z,15.69
2023-05-10T06:55:07.675Z,15.75
2023-05-10T06:57:34.125Z,15.78
2023-05-10T07:00:00.829Z,15.79
2023-05-10T07:02:27.502Z,15.81
2023-05-10T07:04:54.369Z,15.82
2023-05-10T07:07:20.861Z,15.85
2023-05-10T07:09:47.383Z,15.86
2023-05-10T07:12:15.351Z,15.92
2023-05-10T07:14:42.984Z,15.91
2023-05-10T07:17:09.731Z,15.96
2023-05-10T07:19:36.852Z,15.98
2023-05-10T07:22:03.514Z,16.00
2023-05-10T07:24:30.007Z,16.03
2023-05-10T07:26:56.430Z,16.06
2023-05-10T07:29:23.282Z,16.07
2023-05-10T07:31:49.735Z,16.13
2023-05-10T07:34:16.207Z,16.15
2023-05-10T07:36:42.702Z,16.16
2023-05-10T07:39:09.305Z,16.18
2023-05-10T07:41:36.277Z,16.23
2023-05-10T07:44:02.767Z,16.25
2023-05-10T07:46:29.508Z,16.26
2023-05-10T07:48:56.517Z,16.29
2023-05-10T07:51:23.176Z,16.32
2023-05-10T07:53:49.752Z,16.35
2023-05-10T07:56:32.773Z,16.36
2023-05-10T07:59:01.083Z,16.39
2023-05-10T08:01:31.469Z,16.41
2023-05-10T08:03:57.965Z,16.41
2023-05-10T08:06:24.737Z,16.44
2023-05-10T08:08:51.629Z,16.47
2023-05-10T08:11:18.517Z,16.51
2023-05-10T08:13:45.863Z,16.54
2023-05-10T08:16:12.376Z,16.56
2023-05-10T08:18:39.909Z,16.59
2023-05-10T08:21:06.863Z,16.61
2023-05-10T08:23:33.650Z,16.66
2023-05-10T08:26:00.898Z,16.69
2023-05-10T08:28:28.022Z,16.73
2023-05-10T08:30:54.448Z,16.72
2023-05-10T08:33:20.962Z,16.78
2023-05-10T08:35:47.413Z,16.82
2023-05-10T08:38:13.880Z,16.84
2023-05-10T08:40:45.143Z,16.89
2023-05-10T08:43:13.509Z,16.91
2023-05-10T08:45:42.452Z,16.95
2023-05-10T08:48:12.695Z,16.98
2023-05-10T08:50:40.936Z,16.99
2023-05-10T08:53:11.979Z,17.02
2023-05-10T08:55:39.725Z,17.04
2023-05-10T08:58:07.396Z,17.06
2023-05-10T09:00:34.331Z,17.07
2023-05-10T09:03:01.477Z,17.08
2023-05-10T09:05:28.432Z,17.11
2023-05-10T09:07:54.911Z,17.11
2023-05-10T09:10:21.842Z,17.13
2023-05-10T09:12:49.954Z,17.15
2023-05-10T09:15:17.617Z,17.18
2023-05-10T09:17:45.339Z,17.20
2023-05-10T09:20:11.845Z,17.18
2023-05-10T09:22:38.859Z,17.21
2023-05-10T09:25:13.379Z,17.18
2023-05-10T09:27:41.285Z,17.23
2023-05-10T09:30:08.733Z,17.25
2023-05-10T09:32:46.452Z,17.29
2023-05-10T09:35:18.531Z,17.30
2023-05-10T09:37:48.546Z,17.33
2023-05-10T09:40:20.414Z,17.34
2023-05-10T09:42:55.743Z,17.35
2023-05-10T09:45:23.860Z,17.36
2023-05-10T09:47:50.597Z,17.38
2023-05-10T09:50:17.231Z,17.41
2023-05-10T09:52:47.976Z,17.41
2023-05-10T09:55:14.800Z,17.45
2023-05-10T09:57:41.944Z,17.45
2023-05-10T10:00:10.934Z,17.47
2023-05-10T10:02:41.256Z,17.49
2023-05-10T10:05:08.236Z,17.52
2023-05-10T10:07:35.853Z,17.52
2023-05-10T10:10:03.432Z,17.55
2023-05-10T10:12:30.000Z,17.57
2023-05-10T10:14:57.097Z,17.59
2023-05-10T10:17:28.575Z,17.59
2023-05-10T10:19:56.399Z,17.61
2023-05-10T10:22:22.819Z,17.63
2023-05-10T10:24:49.661Z,17.63
2023-05-10T10:27:34.397Z,17.64
2023-05-10T10:30:27.239Z,17.62
2023-05-10T10:33:27.987Z,17.65
2023-05-10T10:35:59.093Z,17.65
2023-05-10T10:38:25.627Z,17.66
2023-05-10T10:41:37.581Z,17.63
2023-05-10T10:44:23.153Z,17.64
2023-05-10T10:47:25.050Z,17.64
2023-05-10T10:49:53.543Z,17.65
2023-05-10T10:52:30.697Z,17.64
2023-05-10T10:55:19.249Z,17.65
2023-05-10T10:58:01.567Z,17.66
2023-05-10T11:00:32.891Z,17.66
2023-05-10T11:02:59.471Z,17.66
2023-05-10T11:05:28.613Z,17.67
2023-05-10T11:07:57.276Z,17.67
2023-05-10T11:10:25.521Z,17.68
2023-05-10T11:12:54.049Z,17.68
2023-05-10T11:15:21.471Z,17.70
2023-05-10T11:17:52.957Z,17.70
2023-05-10T11:20:23.869Z,17.71
2023-05-10T11:22:54.249Z,17.71
2023-05-10T11:25:21.290Z,17.73
2023-05-10T11:27:51.170Z,17.74
2023-05-10T11:30:18.521Z,17.75
2023-05-10T11:32:45.660Z,17.76
2023-05-10T11:35:12.815Z,17.78
2023-05-10T11:37:44.595Z,17.77
2023-05-10T11:40:11.645Z,17.81
2023-05-10T11:42:39.783Z,17.83
2023-05-10T11:45:07.055Z,17.82
2023-05-10T11:47:33.569Z,17.86
2023-05-10T11:50:01.097Z,17.88
2023-05-10T11:52:27.563Z,17.88
2023-05-10T11:54:55.140Z,17.89
2023-05-10T11:57:26.601Z,17.94
2023-05-10T11:59:58.194Z,17.96
2023-05-10T12:02:24.946Z,17.98
2023-05-10T12:04:52.254Z,18.00
2023-05-10T12:07:19.039Z,18.02
2023-05-10T12:09:46.103Z,18.04
2023-05-10T12:12:18.512Z,18.04
2023-05-10T12:14:45.001Z,18.08
2023-05-10T12:17:14.515Z,18.11
2023-05-10T12:19:41.928Z,18.13
2023-05-10T12:22:08.433Z,18.15
2023-05-10T12:24:36.467Z,18.17
2023-05-10T12:27:06.812Z,18.19
2023-05-10T12:29:33.253Z,18.22
2023-05-10T12:32:00.871Z,18.22
2023-05-10T12:34:32.351Z,18.25
2023-05-10T12:37:00.832Z,18.26
2023-05-10T12:39:27.295Z,18.29
2023-05-10T12:41:54.188Z,18.30
2023-05-10T12:44:20.724Z,18.29
2023-05-10T12:46:47.158Z,18.33
2023-05-10T12:49:13.589Z,18.35
2023-05-10T12:51:40.048Z,18.34
2023-05-10T12:54:06.858Z,18.36
2023-05-10T12:56:33.272Z,18.38
2023-05-10T12:58:59.692Z,18.41
2023-05-10T13:01:26.170Z,18.42
2023-05-10T13:03:52.734Z,18.42
2023-05-10T13:06:19.214Z,18.45
2023-05-10T13:08:45.927Z,18.48
2023-05-10T13:11:12.653Z,18.49
2023-05-10T13:13:39.136Z,18.52
2023-05-10T13:16:05.912Z,18.52
2023-05-10T13:18:32.406Z,18.54
2023-05-10T13:20:58.845Z,18.57
2023-05-10T13:23:25.287Z,18.61
2023-05-10T13:25:51.732Z,18.62
2023-05-10T13:28:18.191Z,18.63
2023-05-10T13:30:44.643Z,18.65
2023-05-10T13:33:11.256Z,18.69
2023-05-10T13:35:37.704Z,18.70
2023-05-10T13:38:04.159Z,18.70
2023-05-10T13:40:30.611Z,18.74
2023-05-10T13:42:57.162Z,18.74
2023-05-10T13:45:23.651Z,18.73
2023-05-10T13:47:50.411Z,18.78
2023-05-10T13:50:17.802Z,18.80
2023-05-10T13:52:44.300Z,18.81
2023-05-10T13:55:13.247Z,18.82
2023-05-10T13:57:39.717Z,18.84
2023-05-10T14:00:06.932Z,18.85
2023-05-10T14:02:34.483Z,18.88
2023-05-10T14:05:01.105Z,18.88
2023-05-10T14:07:27.564Z,18.92
2023-05-10T14:09:54.007Z,18.93
2023-05-10T14:12:20.422Z,18.97
2023-05-10T14:14:46.992Z,18.99
2023-05-10T14:17:13.427Z,19.03
2023-05-10T14:19:40.392Z,19.03
2023-05-10T14:22:06.985Z,19.07
2023-05-10T14:24:33.594Z,19.09
2023-05-10T14:26:59.985Z,19.13
2023-05-10T14:29:26.421Z,19.16
2023-05-10T14:31:52.968Z,19.17
2023-05-10T14:34:19.482Z,19.21
2023-05-10T14:36:45.919Z,19.22
2023-05-10T14:39:13.735Z,19.28
2023-05-10T14:41:42.406Z,19.29
2023-05-10T14:44:08.931Z,19.32
2023-05-10T14:46:36.044Z,19.37
2023-05-10T14:49:02.674Z,19.41
2023-05-10T14:51:29.125Z,19.42
2023-05-10T14:53:55.569Z,19.46
2023-05-10T14:56:22.496Z,19.48
2023-05-10T14:58:50.592Z,19.53
2023-05-10T15:01:17.258Z,19.57
2023-05-10T15:03:44.044Z,19.58
2023-05-10T15:06:11.567Z,19.60
2023-05-10T15:08:38.005Z,19.63
2023-05-10T15:11:04.473Z,19.66
2023-05-10T15:13:31.982Z,19.68
2023-05-10T15:15:58.435Z,19.70
2023-05-10T15:18:25.049Z,19.72
2023-05-10T15:20:51.541Z,19.71
2023-05-10T15:23:17.983Z,19.75
2023-05-10T15:25:44.533Z,19.76
2023-05-10T15:28:10.935Z,19.78
2023-05-10T15:30:37.355Z,19.80
2023-05-10T15:33:03.843Z,19.82
2023-05-10T15:35:30.793Z,19.81
2023-05-10T15:37:57.194Z,19.83
2023-05-10T15:40:23.904Z,19.84
2023-05-10T15:42:50.355Z,19.86
2023-05-10T15:45:17.333Z,19.89
2023-05-10T15:47:45.031Z,19.87
2023-05-10T15:50:12.485Z,19.88
2023-05-10T15:52:38.898Z,19.89
2023-05-10T15:55:12.478Z,19.92
2023-05-10T15:57:40.380Z,19.94
2023-05-10T16:00:09.098Z,19.93
2023-05-10T16:02:39.989Z,19.94
2023-05-10T16:05:07.094Z,19.92
2023-05-10T16:07:34.092Z,19.92
2023-05-10T16:10:03.974Z,19.91
2023-05-10T16:12:31.430Z,19.92
2023-05-10T16:14:58.005Z,19.89
2023-05-10T16:17:24.560Z,19.90
2023-05-10T16:19:51.258Z,19.91
2023-05-10T16:22:17.939Z,19.89
2023-05-10T16:24:44.408Z,19.89
2023-05-10T16:27:12.484Z,19.88
2023-05-10T16:29:39.154Z,19.85
2023-05-10T16:32:05.762Z,19.86
2023-05-10T16:34:32.371Z,19.83
2023-05-10T16:36:58.810Z,19.83
2023-05-10T16:39:25.241Z,19.82
2023-05-10T16:41:51.637Z,19.82
2023-05-10T16:44:19.661Z,19.81
2023-05-10T16:46:47.214Z,19.82
2023-05-10T16:49:13.937Z,19.80
2023-05-10T16:51:40.882Z,19.80
2023-05-10T16:54:07.658Z,19.80
2023-05-10T16:56:34.081Z,19.79
2023-05-10T16:59:00.629Z,19.77
2023-05-10T17:01:27.276Z,19.76
2023-05-10T17:03:53.956Z,19.75
2023-05-10T17:06:20.439Z,19.78
2023-05-10T17:08:46.988Z,19.76
2023-05-10T17:11:13.736Z,19.75
2023-05-10T17:13:40.195Z,19.74
2023-05-10T17:16:07.074Z,19.74
2023-05-10T17:18:33.562Z,19.74
2023-05-10T17:21:00.383Z,19.75
2023-05-10T17:23:27.005Z,19.74
2023-05-10T17:25:53.693Z,19.73
2023-05-10T17:28:20.561Z,19.71
2023-05-10T17:30:47.118Z,19.71
2023-05-10T17:33:13.590Z,19.72
2023-05-10T17:35:40.053Z,19.71
2023-05-10T17:38:06.473Z,19.67
2023-05-10T17:40:32.878Z,19.68
2023-05-10T17:42:59.332Z,19.67
2023-05-10T17:45:26.387Z,19.66
2023-05-10T17:47:52.843Z,19.64
2023-05-10T17:50:19.667Z,19.63
2023-05-10T17:52:46.398Z,19.63
2023-05-10T17:55:13.251Z,19.62
2023-05-10T17:57:39.694Z,19.60
2023-05-10T18:00:08.702Z,19.59
2023-05-10T18:02:36.799Z,19.59
2023-05-10T18:05:04.488Z,19.57
2023-05-10T18:07:31.358Z,19.56
2023-05-10T18:09:58.071Z,19.54
2023-05-10T18:12:24.889Z,19.53
2023-05-10T18:14:51.529Z,19.52
2023-05-10T18:17:18.292Z,19.50
2023-05-10T18:19:44.688Z,19.49
2023-05-10T18:22:11.317Z,19.47
2023-05-10T18:24:41.014Z,19.46
2023-05-10T18:27:11.255Z,19.45
2023-05-10T18:29:37.956Z,19.44
2023-05-10T18:32:04.744Z,19.42
2023-05-10T18:34:31.239Z,19.40
2023-05-10T18:36:57.973Z,19.39
2023-05-10T18:39:24.990Z,19.37
2023-05-10T18:41:51.619Z,19.38
2023-05-10T18:44:18.923Z,19.35
2023-05-10T18:46:45.569Z,19.34
2023-05-10T18:49:12.013Z,19.31
2023-05-10T18:51:38.410Z,19.33
2023-05-10T18:54:04.884Z,19.29
2023-05-10T18:56:31.363Z,19.27
2023-05-10T18:58:57.775Z,19.27
2023-05-10T19:01:24.236Z,19.24
2023-05-10T19:03:50.699Z,19.24
2023-05-10T19:06:17.099Z,19.21
2023-05-10T19:08:43.592Z,19.20
2023-05-10T19:11:10.006Z,19.19
2023-05-10T19:13:36.631Z,19.16
2023-05-10T19:16:12.526Z,19.13
2023-05-10T19:18:39.893Z,19.13
2023-05-10T19:21:10.392Z,19.10
2023-05-10T19:23:41.819Z,19.10
2023-05-10T19:26:09.488Z,19.07
2023-05-10T19:28:36.051Z,19.07
2023-05-10T19:31:02.481Z,19.03
2023-05-10T19:33:29.309Z,19.02
2023-05-10T19:35:56.186Z,19.01
2023-05-10T19:38:23.667Z,18.99
2023-05-10T19:40:50.628Z,18.97
2023-05-10T19:43:17.229Z,18.95
2023-05-10T19:45:43.739Z,18.94
2023-05-10T19:48:10.490Z,18.91
2023-05-10T19:50:38.038Z,18.89
2023-05-10T19:53:04.471Z,18.89
2023-05-10T19:55:32.085Z,18.87
2023-05-10T19:58:00.626Z,18.85
2023-05-10T20:00:27.644Z,18.82
2023-05-10T20:02:54.669Z,18.83
2023-05-10T20:05:21.862Z,18.81
2023-05-10T20:07:48.814Z,18.77
2023-05-10T20:10:16.557Z,18.76
2023-05-10T20:12:50.897Z,18.75
2023-05-10T20:15:21.717Z,18.73
2023-05-10T20:17:50.859Z,18.71
2023-05-10T20:20:18.125Z,18.68
2023-05-10T20:22:44.852Z,18.68
2023-05-10T20:25:11.456Z,18.66
2023-05-10T20:27:37.910Z,18.63
2023-05-10T20:30:06.054Z,18.62
2023-05-10T20:32:32.620Z,18.58
2023-05-10T20:34:59.069Z,18.56
2023-05-10T20:37:27.286Z,18.56
2023-05-10T20:39:54.347Z,18.55
2023-05-10T20:42:22.090Z,18.51
2023-05-10T20:44:49.491Z,18.50
2023-05-10T20:47:16.737Z,18.49
2023-05-10T20:49:43.612Z,18.47
2023-05-10T20:52:10.082Z,18.44
2023-05-10T20:54:36.567Z,18.40
2023-05-10T20:57:03.162Z,18.39
2023-05-10T20:59:29.647Z,18.39
2023-05-10T21:01:57.227Z,18.37
2023-05-10T21:04:24.545Z,18.34
2023-05-10T21:06:51.197Z,18.34
2023-05-10T21:09:17.798Z,18.32
2023-05-10T21:11:44.476Z,18.30
2023-05-10T21:14:10.990Z,18.29
2023-05-10T21:16:37.464Z,18.26
2023-05-10T21:19:04.045Z,18.23
2023-05-10T21:21:30.978Z,18.22
2023-05-10T21:23:57.413Z,18.20
2023-05-10T21:26:23.936Z,18.14
2023-05-10T21:28:50.507Z,18.15
2023-05-10T21:31:16.975Z,18.14
2023-05-10T21:33:43.590Z,18.12
2023-05-10T21:36:10.106Z,18.11
2023-05-10T21:38:36.621Z,18.09
2023-05-10T21:41:07.758Z,18.04
2023-05-10T21:43:34.217Z,18.06
2023-05-10T21:46:01.010Z,18.02
2023-05-10T21:48:27.469Z,18.01
2023-05-10T21:50:53.913Z,17.97
2023-05-10T21:53:20.510Z,17.99
2023-05-10T21:55:48.124Z,17.96
2023-05-10T21:58:14.559Z,17.90
2023-05-10T22:00:41.066Z,17.89
2023-05-10T22:03:07.673Z,17.90
2023-05-10T22:05:34.344Z,17.86
2023-05-10T22:08:00.967Z,17.85
2023-05-10T22:10:27.584Z,17.83
2023-05-10T22:12:54.100Z,17.83
2023-05-10T22:15:20.543Z,17.80
2023-05-10T22:17:47.014Z,17.75
2023-05-10T22:20:13.721Z,17.75
2023-05-10T22:22:40.105Z,17.70
2023-05-10T22:25:07.429Z,17.72
2023-05-10T22:27:34.401Z,17.71
2023-05-10T22:30:01.478Z,17.67
2023-05-10T22:32:28.064Z,17.66
2023-05-10T22:34:54.578Z,17.65
2023-05-10T22:37:21.134Z,17.64
2023-05-10T22:39:48.999Z,17.59
2023-05-10T22:42:15.854Z,17.58
2023-05-10T22:44:43.090Z,17.56
2023-05-10T22:47:09.584Z,17.53
2023-05-10T22:49:36.080Z,17.54
2023-05-10T22:52:02.783Z,17.50
2023-05-10T22:54:29.245Z,17.49
2023-05-10T22:56:56.658Z,17.48
2023-05-10T22:59:23.647Z,17.45
2023-05-10T23:01:50.107Z,17.44
2023-05-10T23:04:16.557Z,17.40
2023-05-10T23:06:42.992Z,17.38
2023-05-10T23:09:09.757Z,17.39
2023-05-10T23:11:36.373Z,17.37
2023-05-10T23:14:03.024Z,17.35
2023-05-10T23:16:29.521Z,17.35
2023-05-10T23:18:56.187Z,17.32
2023-05-10T23:21:22.720Z,17.32
2023-05-10T23:23:49.319Z,17.30
2023-05-10T23:26:16.278Z,17.28
2023-05-10T23:28:42.764Z,17.25
2023-05-10T23:31:09.213Z,17.24
2023-05-10T23:33:35.638Z,17.22
2023-05-10T23:36:02.123Z,17.19
2023-05-10T23:38:28.883Z,17.19
2023-05-10T23:40:55.324Z,17.18
2023-05-10T23:43:21.820Z,17.17
2023-05-10T23:45:58.332Z,17.13
2023-05-10T23:48:25.169Z,17.12
2023-05-10T23:50:51.765Z,17.09
2023-05-10T23:53:18.354Z,17.08
2023-05-10T23:55:45.409Z,17.08
2023-05-10T23:58:12.431Z,17.05
